createdAt,value
2022-09-07T00:00:04.214Z,101132.84
2022-09-07T00:02:30.498Z,101171.34
2022-09-07T00:04:56.774Z,101161.22
2022-09-07T00:07:23.022Z,101154.94
2022-09-07T00:09:49.288Z,101189.16
2022-09-07T00:12:15.543Z,101190.09
2022-09-07T00:14:41.787Z,101163.03
2022-09-07T00:17:08.078Z,101158.34
2022-09-07T00:19:34.331Z,101188.56
2022-09-07T00:22:00.591Z,101206.03
2022-09-07T00:24:26.842Z,101219.50
2022-09-07T00:26:54.597Z,101178.09
2022-09-07T00:29:20.839Z,101162.31
2022-09-07T00:31:47.116Z,101177.88
2022-09-07T00:34:13.399Z,101143.97
2022-09-07T00:36:39.668Z,101113.94
2022-09-07T00:39:05.917Z,101074.47
2022-09-07T00:41:32.166Z,101042.19
2022-09-07T00:43:59.446Z,100997.78
2022-09-07T00:46:26.499Z,101023.19
2022-09-07T00:48:58.980Z,101029.25
2022-09-07T00:51:45.479Z,101009.50
2022-09-07T00:54:21.342Z,101040.47
2022-09-07T00:56:48.006Z,101024.19
2022-09-07T00:59:14.611Z,101056.63
2022-09-07T01:01:40.962Z,101060.50
2022-09-07T01:04:07.287Z,101021.16
2022-09-07T01:06:35.079Z,101001.03
2022-09-07T01:09:03.126Z,100964.56
2022-09-07T01:11:29.369Z,100949.16
2022-09-07T01:13:55.600Z,100900.34
2022-09-07T01:16:40.569Z,100881.22
2022-09-07T01:19:25.489Z,100866.53
2022-09-07T01:22:20.881Z,100860.72
2022-09-07T01:25:05.874Z,100891.19
2022-09-07T01:27:50.645Z,100861.75
2022-09-07T01:30:19.822Z,100845.75
2022-09-07T01:32:57.478Z,100849.09
2022-09-07T01:35:23.715Z,100883.78
2022-09-07T01:37:56.919Z,100878.81
2022-09-07T01:40:23.474Z,100858.34
2022-09-07T01:42:51.452Z,100839.72
2022-09-07T01:45:17.750Z,100820.03
2022-09-07T01:47:45.823Z,100851.53
2022-09-07T01:50:15.404Z,100841.00
2022-09-07T01:52:41.607Z,100833.38
2022-09-07T01:55:10.062Z,100893.59
2022-09-07T01:57:41.368Z,101002.03
2022-09-07T02:00:11.000Z,101057.00
2022-09-07T02:02:48.349Z,101096.81
2022-09-07T02:05:22.021Z,101091.34
2022-09-07T02:07:49.565Z,101086.91
2022-09-07T02:10:24.131Z,101111.13
2022-09-07T02:12:52.480Z,101083.59
2022-09-07T02:15:20.573Z,101096.19
2022-09-07T02:17:50.603Z,101092.56
2022-09-07T02:20:17.994Z,101093.34
2022-09-07T02:22:45.195Z,101087.53
2022-09-07T02:25:12.414Z,101088.81
2022-09-07T02:27:43.855Z,101106.69
2022-09-07T02:30:10.292Z,101100.63
2022-09-07T02:32:36.532Z,101071.78
2022-09-07T02:35:02.785Z,101065.09
2022-09-07T02:37:29.024Z,101035.09
2022-09-07T02:39:55.395Z,101036.94
2022-09-07T02:42:21.681Z,101033.56
2022-09-07T02:44:47.931Z,100990.59
2022-09-07T02:47:29.221Z,100984.31
2022-09-07T02:50:06.194Z,100978.44
2022-09-07T02:52:51.219Z,100970.81
2022-09-07T02:55:23.211Z,100984.22
2022-09-07T02:57:49.396Z,100996.44
2022-09-07T03:00:16.305Z,101006.66
2022-09-07T03:02:48.820Z,101026.59
2022-09-07T03:05:36.680Z,101014.53
2022-09-07T03:08:04.023Z,101018.72
2022-09-07T03:10:30.266Z,101059.50
2022-09-07T03:12:56.526Z,101035.97
2022-09-07T03:15:23.757Z,101037.72
2022-09-07T03:17:50.047Z,101052.28
2022-09-07T03:20:16.347Z,101062.50
2022-09-07T03:22:43.065Z,101047.16
2022-09-07T03:25:09.565Z,101029.84
2022-09-07T03:27:35.842Z,100991.97
2022-09-07T03:30:02.094Z,100977.56
2022-09-07T03:32:32.153Z,100951.06
2022-09-07T03:35:00.151Z,100940.72
2022-09-07T03:37:26.467Z,100962.72
2022-09-07T03:39:52.762Z,100968.16
2022-09-07T03:42:19.041Z,100983.47
2022-09-07T03:44:45.276Z,100974.97
2022-09-07T03:47:11.535Z,100992.22
2022-09-07T03:49:37.783Z,100998.22
2022-09-07T03:52:04.048Z,100999.47
2022-09-07T03:54:30.285Z,100984.06
2022-09-07T03:56:56.637Z,100998.47
2022-09-07T03:59:22.886Z,100970.44
2022-09-07T04:01:49.157Z,100970.50
2022-09-07T04:04:15.428Z,100965.72
2022-09-07T04:06:41.666Z,100998.34
2022-09-07T04:09:08.419Z,101004.28
2022-09-07T04:11:34.657Z,100994.28
2022-09-07T04:14:00.916Z,101009.88
2022-09-07T04:16:27.191Z,101029.78
2022-09-07T04:18:53.629Z,101024.13
2022-09-07T04:21:20.174Z,101017.16
2022-09-07T04:23:46.473Z,100978.47
2022-09-07T04:26:13.322Z,100969.31
2022-09-07T04:28:39.567Z,100938.78
2022-09-07T04:31:05.959Z,100954.69
2022-09-07T04:33:32.372Z,100979.78
2022-09-07T04:36:01.518Z,101007.00
2022-09-07T04:38:27.802Z,100991.41
2022-09-07T04:41:00.697Z,100989.94
2022-09-07T04:43:27.557Z,100965.00
2022-09-07T04:45:53.838Z,100978.44
2022-09-07T04:48:20.107Z,101013.63
2022-09-07T04:50:46.354Z,101039.16
2022-09-07T04:53:12.590Z,101024.03
2022-09-07T04:55:38.833Z,101021.97
2022-09-07T04:58:05.069Z,101025.00
2022-09-07T05:00:31.325Z,100980.31
2022-09-07T05:02:57.560Z,100955.28
2022-09-07T05:05:23.809Z,100932.03
2022-09-07T05:07:50.062Z,100921.47
2022-09-07T05:10:16.329Z,100856.41
2022-09-07T05:12:42.561Z,100777.69
2022-09-07T05:15:08.952Z,100767.97
2022-09-07T05:17:35.181Z,100789.66
2022-09-07T05:20:01.625Z,100812.22
2022-09-07T05:22:27.855Z,100820.84
2022-09-07T05:24:54.099Z,100838.44
2022-09-07T05:27:20.344Z,100856.56
2022-09-07T05:30:03.456Z,100859.19
2022-09-07T05:32:30.773Z,100836.38
2022-09-07T05:34:57.020Z,100851.28
2022-09-07T05:37:23.256Z,100877.19
2022-09-07T05:39:49.569Z,100899.75
2022-09-07T05:42:15.861Z,100879.88
2022-09-07T05:47:09.293Z,100863.94
2022-09-07T05:49:35.546Z,100845.81
2022-09-07T05:52:01.812Z,100797.09
2022-09-07T05:54:28.065Z,100836.66
2022-09-07T05:56:54.301Z,100854.81
2022-09-07T05:59:20.547Z,100791.84
2022-09-07T06:01:46.834Z,100770.88
2022-09-07T06:04:13.101Z,100796.34
2022-09-07T06:06:39.342Z,100775.34
2022-09-07T06:09:05.605Z,100773.25
2022-09-07T06:11:31.841Z,100792.19
2022-09-07T06:13:58.087Z,100789.81
2022-09-07T06:16:24.406Z,100760.44
2022-09-07T06:18:50.713Z,100769.38
2022-09-07T06:21:17.825Z,100816.09
2022-09-07T06:23:44.175Z,100814.81
2022-09-07T06:26:10.649Z,100823.97
2022-09-07T06:28:37.804Z,100846.31
2022-09-07T06:31:04.884Z,100837.88
2022-09-07T06:33:31.283Z,100784.06
2022-09-07T06:36:01.267Z,100758.09
2022-09-07T06:38:31.919Z,100751.50
2022-09-07T06:43:48.302Z,100761.22
2022-09-07T06:49:01.026Z,100810.06
2022-09-07T06:51:27.278Z,100812.97
2022-09-07T06:56:41.299Z,100764.34
2022-09-07T06:59:07.557Z,100812.44
2022-09-07T07:01:33.802Z,100767.72
2022-09-07T07:04:00.230Z,100743.78
2022-09-07T07:06:52.957Z,100718.22
2022-09-07T07:09:19.201Z,100702.72
2022-09-07T07:11:45.443Z,100685.59
2022-09-07T07:14:14.684Z,100740.50
2022-09-07T07:16:41.164Z,100756.31
2022-09-07T07:19:07.434Z,100767.13
2022-09-07T07:21:48.579Z,100819.44
2022-09-07T07:24:19.911Z,100829.13
2022-09-07T07:26:46.148Z,100743.69
2022-09-07T07:29:15.789Z,100761.50
2022-09-07T07:31:43.366Z,100703.31
2022-09-07T07:34:09.597Z,100674.63
2022-09-07T07:36:35.873Z,100595.75
2022-09-07T07:39:03.480Z,100662.75
2022-09-07T07:44:16.365Z,100873.50
2022-09-07T07:46:42.687Z,100814.25
2022-09-07T07:49:09.073Z,100737.53
2022-09-07T07:52:50.023Z,100702.31
2022-09-07T07:54:21.461Z,100844.16
2022-09-07T07:56:47.660Z,100767.03
2022-09-07T07:59:15.748Z,100748.88
2022-09-07T08:01:42.352Z,100700.91
2022-09-07T08:04:08.652Z,100707.09
2022-09-07T08:06:34.847Z,100800.22
2022-09-07T08:09:01.036Z,100729.13
2022-09-07T08:11:27.233Z,100675.94
2022-09-07T08:13:53.421Z,100691.22
2022-09-07T08:16:19.674Z,100701.25
2022-09-07T08:18:47.081Z,100702.00
2022-09-07T08:21:13.834Z,100681.34
2022-09-07T08:23:40.093Z,100733.25
2022-09-07T08:26:06.292Z,100793.16
2022-09-07T08:28:33.439Z,100886.13
2022-09-07T08:30:59.655Z,101013.56
2022-09-07T08:33:25.859Z,100869.31
2022-09-07T08:35:55.111Z,101021.03
2022-09-07T08:38:21.311Z,100915.41
2022-09-07T08:40:47.526Z,101004.38
2022-09-07T08:43:13.678Z,100992.72
2022-09-07T08:45:42.442Z,100903.69
2022-09-07T08:48:08.665Z,100807.50
2022-09-07T08:50:39.540Z,100906.72
2022-09-07T08:53:18.139Z,100963.81
2022-09-07T08:55:49.584Z,100950.53
2022-09-07T08:58:48.177Z,100913.09
2022-09-07T09:01:32.203Z,100774.75
2022-09-07T09:06:51.998Z,100741.75
2022-09-07T09:09:20.942Z,100704.34
2022-09-07T09:11:47.104Z,100764.94
2022-09-07T09:17:08.935Z,100503.88
2022-09-07T09:19:35.097Z,100494.50
2022-09-07T09:22:11.466Z,100601.56
2022-09-07T09:24:38.336Z,100599.19
2022-09-07T09:27:04.669Z,100586.22
2022-09-07T09:29:30.895Z,100388.78
2022-09-07T09:31:57.101Z,100264.91
2022-09-07T09:34:23.969Z,100389.16
2022-09-07T09:36:52.462Z,100375.78
2022-09-07T09:39:32.033Z,100450.75
2022-09-07T09:42:18.559Z,100361.97
2022-09-07T09:44:44.778Z,100433.25
2022-09-07T09:47:35.389Z,100410.72
2022-09-07T09:50:05.568Z,100476.16
2022-09-07T09:52:38.082Z,100348.22
2022-09-07T10:01:24.871Z,100555.28
2022-09-07T10:03:56.413Z,100479.56
2022-09-07T10:06:23.929Z,100516.59
2022-09-07T10:09:00.131Z,100602.84
2022-09-07T10:14:33.162Z,100629.00
2022-09-07T10:16:59.360Z,100628.78
2022-09-07T10:19:38.492Z,100674.97
2022-09-07T10:22:24.485Z,100697.06
2022-09-07T10:24:50.681Z,100722.50
2022-09-07T10:27:20.961Z,100736.19
2022-09-07T10:29:47.160Z,100720.66
2022-09-07T10:32:19.622Z,100856.81
2022-09-07T10:34:48.938Z,100900.22
2022-09-07T10:37:44.485Z,100859.31
2022-09-07T10:40:16.599Z,100817.78
2022-09-07T10:45:35.871Z,100825.09
2022-09-07T10:48:23.490Z,100905.94
2022-09-07T10:50:56.517Z,100903.00
2022-09-07T10:53:43.367Z,100954.50
2022-09-07T10:56:15.080Z,100893.72
2022-09-07T11:01:33.473Z,100929.41
2022-09-07T11:04:03.823Z,100931.03
2022-09-07T11:06:32.230Z,100926.00
2022-09-07T11:09:22.939Z,100950.28
2022-09-07T11:12:01.332Z,100926.94
2022-09-07T11:14:28.173Z,100938.75
2022-09-07T11:16:57.954Z,100950.91
2022-09-07T11:19:37.219Z,100978.72
2022-09-07T11:22:06.142Z,100906.84
2022-09-07T11:24:44.828Z,100943.63
2022-09-07T11:27:12.461Z,101051.06
2022-09-07T11:29:52.196Z,101131.88
2022-09-07T11:32:20.497Z,101195.56
2022-09-07T11:34:53.952Z,101197.94
2022-09-07T11:37:25.433Z,101213.88
2022-09-07T11:40:06.324Z,101207.59
2022-09-07T11:42:44.960Z,101191.78
2022-09-07T11:45:14.240Z,101178.09
2022-09-07T11:47:45.321Z,101153.91
2022-09-07T11:50:18.132Z,101127.78
2022-09-07T11:53:04.593Z,101102.78
2022-09-07T11:55:32.308Z,101085.66
2022-09-07T11:58:16.589Z,101054.81
2022-09-07T12:00:42.748Z,101031.53
2022-09-07T12:03:11.847Z,101008.03
2022-09-07T12:05:56.124Z,100982.06
2022-09-07T12:08:41.318Z,100958.22
2022-09-07T12:11:21.298Z,100945.78
2022-09-07T12:13:58.053Z,100927.91
2022-09-07T12:16:43.005Z,100907.53
2022-09-07T12:19:14.772Z,100890.97
2022-09-07T12:21:41.856Z,100882.09
2022-09-07T12:24:27.042Z,100861.50
2022-09-07T12:26:53.228Z,100857.44
2022-09-07T12:29:20.421Z,100813.41
2022-09-07T12:31:57.573Z,100799.63
2022-09-07T12:34:30.571Z,100715.34
2022-09-07T12:36:57.202Z,100678.44
2022-09-07T12:39:24.154Z,100709.16
2022-09-07T12:42:31.923Z,100690.16
2022-09-07T12:44:37.390Z,100605.75
2022-09-07T12:47:23.587Z,100537.84
2022-09-07T12:49:55.333Z,100582.13
2022-09-07T12:52:21.472Z,100603.63
2022-09-07T12:55:09.999Z,100624.88
2022-09-07T12:57:39.608Z,100657.69
2022-09-07T13:00:19.045Z,100627.75
2022-09-07T13:02:57.060Z,100627.00
2022-09-07T13:05:42.271Z,100642.69
2022-09-07T13:08:13.152Z,100572.97
2022-09-07T13:10:42.588Z,100557.69
2022-09-07T13:13:15.126Z,100559.41
2022-09-07T13:15:51.254Z,100565.81
2022-09-07T13:18:26.617Z,100572.19
2022-09-07T13:21:08.302Z,100631.78
2022-09-07T13:23:34.829Z,100605.88
2022-09-07T13:26:01.683Z,100597.59
2022-09-07T13:28:28.958Z,100623.75
2022-09-07T13:30:58.167Z,100716.56
2022-09-07T13:33:24.334Z,100757.44
2022-09-07T13:35:51.494Z,100864.03
2022-09-07T13:38:17.693Z,100852.28
2022-09-07T13:40:45.158Z,100740.50
2022-09-07T13:43:15.310Z,100745.66
2022-09-07T13:45:47.677Z,100850.66
2022-09-07T13:48:33.824Z,100844.47
2022-09-07T13:51:03.038Z,100801.16
2022-09-07T13:53:34.122Z,100766.44
2022-09-07T13:56:07.732Z,100763.38
2022-09-07T13:58:34.945Z,100740.59
2022-09-07T14:01:02.512Z,100809.56
2022-09-07T14:03:30.171Z,100789.81
2022-09-07T14:06:15.161Z,100701.84
2022-09-07T14:08:41.361Z,100647.50
2022-09-07T14:11:17.382Z,100674.53
2022-09-07T14:13:43.578Z,100709.03
2022-09-07T14:16:09.819Z,100642.72
2022-09-07T14:18:36.040Z,100672.97
2022-09-07T14:21:02.246Z,100674.84
2022-09-07T14:23:28.893Z,100616.84
2022-09-07T14:26:16.153Z,100658.63
2022-09-07T14:28:43.131Z,100654.59
2022-09-07T14:31:10.175Z,100675.66
2022-09-07T14:33:37.419Z,100635.22
2022-09-07T14:36:23.163Z,100704.88
2022-09-07T14:39:05.641Z,100668.00
2022-09-07T14:41:31.978Z,100630.25
2022-09-07T14:43:58.601Z,100554.38
2022-09-07T14:46:25.971Z,100573.75
2022-09-07T14:48:53.410Z,100516.63
2022-09-07T14:51:32.697Z,100515.38
2022-09-07T14:54:03.158Z,100591.69
2022-09-07T14:56:36.454Z,100548.59
2022-09-07T14:59:20.680Z,100662.88
2022-09-07T15:01:46.964Z,100615.88
2022-09-07T15:04:17.003Z,100521.59
2022-09-07T15:09:32.050Z,100581.72
2022-09-07T15:12:17.935Z,100541.41
2022-09-07T15:14:44.139Z,100563.44
2022-09-07T15:20:25.337Z,100575.78
2022-09-07T15:22:51.530Z,100613.22
2022-09-07T15:25:17.777Z,100658.00
2022-09-07T15:27:43.985Z,100695.16
2022-09-07T15:30:10.807Z,100703.91
2022-09-07T15:32:37.077Z,100775.41
2022-09-07T15:35:03.378Z,100578.84
2022-09-07T15:40:16.738Z,100617.25
2022-09-07T15:45:29.164Z,100583.25
2022-09-07T15:47:55.413Z,100614.63
2022-09-07T15:50:23.063Z,100622.56
2022-09-07T15:52:49.730Z,100703.97
2022-09-07T15:55:17.382Z,100671.06
2022-09-07T15:57:59.412Z,100666.06
2022-09-07T16:00:30.210Z,100753.38
2022-09-07T16:03:11.937Z,100726.38
2022-09-07T16:05:41.435Z,100659.22
2022-09-07T16:10:54.407Z,100773.47
2022-09-07T16:13:21.723Z,100807.00
2022-09-07T16:15:47.949Z,100777.94
2022-09-07T16:18:16.518Z,100786.03
2022-09-07T16:20:42.981Z,100761.94
2022-09-07T16:23:17.369Z,100717.03
2022-09-07T16:25:54.197Z,100759.69
2022-09-07T16:28:20.390Z,100781.81
2022-09-07T16:30:47.990Z,100752.66
2022-09-07T16:33:14.391Z,100782.22
2022-09-07T16:35:40.604Z,100765.22
2022-09-07T16:40:53.003Z,100743.81
2022-09-07T16:43:19.192Z,100765.13
2022-09-07T16:48:32.119Z,100791.06
2022-09-07T16:51:01.934Z,100757.09
2022-09-07T16:53:28.745Z,100784.78
2022-09-07T16:55:59.990Z,100782.97
2022-09-07T16:58:36.454Z,100765.97
2022-09-07T17:01:03.864Z,100759.50
2022-09-07T17:03:30.199Z,100760.59
2022-09-07T17:05:56.465Z,100754.50
2022-09-07T17:08:22.665Z,100754.03
2022-09-07T17:10:48.943Z,100747.66
2022-09-07T17:13:15.157Z,100756.97
2022-09-07T17:15:41.353Z,100761.28
2022-09-07T17:18:07.553Z,100769.53
2022-09-07T17:20:33.787Z,100796.13
2022-09-07T17:23:00.976Z,100788.47
2022-09-07T17:25:27.257Z,100808.41
2022-09-07T17:27:53.474Z,100812.41
2022-09-07T17:30:20.722Z,100823.88
2022-09-07T17:32:47.224Z,100799.19
2022-09-07T17:35:13.490Z,100784.09
2022-09-07T17:37:39.702Z,100802.25
2022-09-07T17:40:06.195Z,100820.09
2022-09-07T17:45:18.630Z,100833.53
2022-09-07T17:47:44.833Z,100844.00
2022-09-07T17:50:11.021Z,100849.56
2022-09-07T17:52:40.312Z,100822.84
2022-09-07T17:55:07.546Z,100833.69
2022-09-07T17:57:33.759Z,100829.97
2022-09-07T18:00:15.317Z,100812.25
2022-09-07T18:02:41.556Z,100818.94
2022-09-07T18:05:07.950Z,100797.28
2022-09-07T18:07:34.214Z,100769.34
2022-09-07T18:10:00.404Z,100746.03
2022-09-07T18:12:26.605Z,100746.31
2022-09-07T18:14:52.804Z,100733.00
2022-09-07T18:17:19.011Z,100708.00
2022-09-07T18:19:45.620Z,100707.03
2022-09-07T18:22:11.834Z,100714.47
2022-09-07T18:24:38.033Z,100746.03
2022-09-07T18:27:04.244Z,100769.94
2022-09-07T18:29:33.565Z,100748.78
2022-09-07T18:32:07.742Z,100746.41
2022-09-07T18:34:35.069Z,100747.03
2022-09-07T18:37:01.281Z,100766.44
2022-09-07T18:39:27.575Z,100754.59
2022-09-07T18:41:54.013Z,100729.69
2022-09-07T18:47:06.397Z,100715.59
2022-09-07T18:49:32.612Z,100674.72
2022-09-07T18:54:45.012Z,100644.22
2022-09-07T18:57:11.205Z,100569.53
2022-09-07T18:59:37.398Z,100565.06
2022-09-07T19:02:05.713Z,100527.44
2022-09-07T19:07:18.409Z,100500.78
2022-09-07T19:09:44.602Z,100545.25
2022-09-07T19:12:10.797Z,100522.72
2022-09-07T19:14:37.074Z,100556.88
2022-09-07T19:17:04.479Z,100526.56
2022-09-07T19:19:30.683Z,100521.56
2022-09-07T19:21:56.904Z,100595.69
2022-09-07T19:24:23.105Z,100629.94
2022-09-07T19:26:49.308Z,100632.88
2022-09-07T19:29:17.734Z,100661.31
2022-09-07T19:31:44.549Z,100691.25
2022-09-07T19:34:10.865Z,100674.91
2022-09-07T19:36:37.063Z,100671.03
2022-09-07T19:39:03.260Z,100651.25
2022-09-07T19:41:29.553Z,100643.53
2022-09-07T19:43:55.757Z,100645.06
2022-09-07T19:46:24.934Z,100662.94
2022-09-07T19:48:51.369Z,100677.50
2022-09-07T19:51:17.583Z,100651.09
2022-09-07T19:53:44.313Z,100660.88
2022-09-07T19:56:17.401Z,100624.50
2022-09-07T19:58:43.792Z,100645.00
2022-09-07T20:01:10.620Z,100646.56
2022-09-07T20:03:37.524Z,100660.34
2022-09-07T20:06:07.366Z,100701.72
2022-09-07T20:08:33.568Z,100745.00
2022-09-07T20:11:00.408Z,100708.91
2022-09-07T20:13:26.701Z,100742.72
2022-09-07T20:15:53.012Z,100737.44
2022-09-07T20:18:19.274Z,100753.03
2022-09-07T20:20:45.460Z,100759.22
2022-09-07T20:23:11.660Z,100764.03
2022-09-07T20:25:37.853Z,100776.06
2022-09-07T20:28:04.057Z,100768.50
2022-09-07T20:30:33.532Z,100742.63
2022-09-07T20:33:00.053Z,100727.56
2022-09-07T20:35:26.246Z,100731.19
2022-09-07T20:37:52.450Z,100744.66
2022-09-07T20:40:18.688Z,100743.81
2022-09-07T20:42:44.986Z,100730.00
2022-09-07T20:45:11.174Z,100747.13
2022-09-07T20:47:37.376Z,100753.47
2022-09-07T20:50:03.662Z,100732.50
2022-09-07T20:52:29.866Z,100740.03
2022-09-07T20:54:56.054Z,100782.53
2022-09-07T20:57:22.266Z,100778.66
2022-09-07T20:59:48.457Z,100799.75
2022-09-07T21:02:14.697Z,100790.28
2022-09-07T21:04:41.364Z,100796.44
2022-09-07T21:07:07.574Z,100796.19
2022-09-07T21:09:33.772Z,100812.97
2022-09-07T21:11:59.984Z,100773.69
2022-09-07T21:14:26.172Z,100761.06
2022-09-07T21:16:52.357Z,100760.84
2022-09-07T21:19:18.549Z,100775.44
2022-09-07T21:21:44.753Z,100762.56
2022-09-07T21:24:17.429Z,100771.34
2022-09-07T21:26:43.617Z,100799.81
2022-09-07T21:29:09.981Z,100792.22
2022-09-07T21:31:36.276Z,100793.75
2022-09-07T21:34:02.525Z,100792.91
2022-09-07T21:36:28.711Z,100782.69
2022-09-07T21:38:54.918Z,100766.56
2022-09-07T21:41:21.701Z,100767.28
2022-09-07T21:43:47.912Z,100752.94
2022-09-07T21:46:17.871Z,100749.16
2022-09-07T21:48:44.378Z,100725.88
2022-09-07T21:51:10.590Z,100691.53
2022-09-07T21:53:36.810Z,100675.25
2022-09-07T21:56:04.404Z,100661.78
2022-09-07T21:58:30.657Z,100670.25
2022-09-07T22:00:56.934Z,100654.16
2022-09-07T22:03:23.352Z,100639.94
2022-09-07T22:05:49.555Z,100647.03
2022-09-07T22:08:16.004Z,100633.94
2022-09-07T22:10:42.537Z,100651.03
2022-09-07T22:13:08.765Z,100637.44
2022-09-07T22:15:35.424Z,100653.53
2022-09-07T22:18:01.628Z,100646.09
2022-09-07T22:20:27.813Z,100645.06
2022-09-07T22:22:54.016Z,100617.28
2022-09-07T22:25:20.218Z,100642.09
2022-09-07T22:27:46.420Z,100658.41
2022-09-07T22:30:12.675Z,100660.50
2022-09-07T22:32:38.885Z,100667.66
2022-09-07T22:35:05.255Z,100658.94
2022-09-07T22:37:31.462Z,100651.56
2022-09-07T22:39:57.726Z,100650.00
2022-09-07T22:42:23.968Z,100643.47
2022-09-07T22:44:50.167Z,100647.94
2022-09-07T22:47:16.363Z,100646.88
2022-09-07T22:49:42.578Z,100638.47
2022-09-07T22:52:08.776Z,100626.94
2022-09-07T22:54:34.985Z,100638.25
2022-09-07T22:57:01.172Z,100626.94
2022-09-07T22:59:27.491Z,100626.41
2022-09-07T23:01:53.688Z,100615.38
2022-09-07T23:04:19.950Z,100609.97
2022-09-07T23:06:46.226Z,100602.94
2022-09-07T23:09:16.205Z,100642.22
2022-09-07T23:11:42.402Z,100640.84
2022-09-07T23:14:11.773Z,100644.00
2022-09-07T23:16:38.029Z,100637.63
2022-09-07T23:19:04.342Z,100623.66
2022-09-07T23:21:30.548Z,100605.28
2022-09-07T23:23:57.387Z,100610.66
2022-09-07T23:26:23.815Z,100605.78
2022-09-07T23:28:50.554Z,100672.53
2022-09-07T23:31:16.804Z,100717.72
2022-09-07T23:33:43.091Z,100688.50
2022-09-07T23:36:09.341Z,100686.94
2022-09-07T23:38:35.536Z,100694.19
2022-09-07T23:41:01.742Z,100682.34
2022-09-07T23:43:28.024Z,100666.47
2022-09-07T23:45:54.482Z,100635.66
2022-09-07T23:48:20.854Z,100621.19
2022-09-07T23:50:47.054Z,100600.38
2022-09-07T23:53:13.287Z,100589.81
2022-09-07T23:55:39.564Z,100593.03
2022-09-07T23:58:05.943Z,100593.75
